Time;durP1;ratioP1;P1;durP2;ratioP2;P2;SDS_P1;SDS_P2;PMS_P1;PMS_P2;Temp;Humidity;BMP_temperature;BMP_pressure;BME280_temperature;BME280_humidity;BME280_pressure;Samples;Min_cycle;Max_cycle;Signal;HPM_P1;HPM_P2
2021/06/11 04:01:26;;;;;;;20.60;18.83;;;16.70;99.90;;;;;;5532952;23;20502;-64
2021/06/11 04:03:53;;;;;;;18.10;16.30;;;16.70;99.90;;;;;;4977986;28;20827;-65
2021/06/11 04:06:22;;;;;;;19.20;17.47;;;16.70;99.90;;;;;;4978084;28;20513;-63
2021/06/11 04:08:56;;;;;;;19.70;17.60;;;16.70;99.90;;;;;;4977873;28;20447;-63
2021/06/11 04:11:27;;;;;;;19.50;17.80;;;16.70;99.90;;;;;;4978001;28;20474;-63
2021/06/11 04:13:56;;;;;;;18.70;17.00;;;16.60;99.90;;;;;;4977864;28;20466;-63
2021/06/11 04:16:26;;;;;;;20.80;18.80;;;16.40;99.90;;;;;;4977874;28;20462;-63
2021/06/11 04:18:56;;;;;;;20.23;18.63;;;16.40;99.90;;;;;;4977839;28;20450;-63
2021/06/11 04:21:24;;;;;;;20.30;18.40;;;16.30;99.90;;;;;;4978121;28;20510;-64
2021/06/11 04:23:53;;;;;;;19.20;17.50;;;16.20;99.90;;;;;;4977806;28;20507;-63
2021/06/11 04:26:22;;;;;;;20.80;18.87;;;16.20;99.90;;;;;;4977379;28;20509;-63
2021/06/11 04:28:51;;;;;;;20.57;18.67;;;16.30;99.90;;;;;;4977692;28;20462;-63
2021/06/11 04:31:17;;;;;;;20.20;18.47;;;16.30;99.90;;;;;;4978482;28;20479;-63
2021/06/11 04:33:45;;;;;;;18.17;16.57;;;16.30;99.90;;;;;;4977683;28;20541;-63
2021/06/11 04:36:11;;;;;;;19.23;17.53;;;16.40;99.90;;;;;;4977191;28;20972;-63
2021/06/11 04:38:54;;;;;;;18.80;17.30;;;16.40;99.90;;;;;;4977471;28;20872;-63
2021/06/11 04:41:21;;;;;;;19.30;17.60;;;16.40;99.90;;;;;;4977677;28;20852;-63
2021/06/11 04:43:47;;;;;;;19.83;18.20;;;16.40;99.90;;;;;;4977942;28;20450;-63
2021/06/11 04:46:13;;;;;;;18.63;17.13;;;16.40;99.90;;;;;;4978047;28;20873;-63
2021/06/11 04:48:39;;;;;;;19.30;17.60;;;16.40;99.90;;;;;;4977974;28;20455;-63
2021/06/11 04:51:07;;;;;;;18.97;17.20;;;16.50;99.90;;;;;;4977753;28;20470;-64
2021/06/11 04:53:33;;;;;;;19.07;17.33;;;16.60;99.90;;;;;;4977552;28;20482;-64
2021/06/11 04:55:59;;;;;;;19.77;18.10;;;16.60;99.90;;;;;;4978149;28;20481;-64
2021/06/11 04:58:28;;;;;;;20.00;18.20;;;16.40;99.90;;;;;;4978006;28;20455;-64
2021/06/11 05:00:54;;;;;;;18.83;17.17;;;16.40;99.90;;;;;;4977709;28;20505;-65
2021/06/11 05:03:21;;;;;;;19.00;17.50;;;16.50;99.90;;;;;;4977826;28;20517;-64
2021/06/11 05:05:47;;;;;;;18.93;17.23;;;16.60;99.90;;;;;;4976713;28;20461;-63
2021/06/11 05:08:15;;;;;;;19.50;17.47;;;16.70;99.90;;;;;;4977155;28;20473;-64
2021/06/11 05:10:41;;;;;;;19.47;17.77;;;16.80;99.90;;;;;;4976355;28;20478;-63
2021/06/11 05:13:07;;;;;;;19.17;17.57;;;16.90;99.90;;;;;;4976986;28;20466;-64
2021/06/11 05:15:34;;;;;;;18.20;16.50;;;17.00;99.90;;;;;;4976588;28;20438;-64
2021/06/11 05:18:03;;;;;;;17.70;16.17;;;17.20;99.90;;;;;;4977095;28;20454;-63
2021/06/11 05:20:30;;;;;;;19.50;17.37;;;17.20;99.90;;;;;;4977823;28;20534;-64
2021/06/11 05:22:56;;;;;;;17.00;15.60;;;17.10;99.90;;;;;;4976955;28;20871;-63
2021/06/11 05:25:24;;;;;;;17.60;16.00;;;17.10;99.90;;;;;;4977418;28;20467;-64
2021/06/11 05:27:50;;;;;;;17.80;16.40;;;17.20;99.90;;;;;;4977420;28;20461;-63
2021/06/11 05:30:18;;;;;;;18.70;17.30;;;17.10;99.90;;;;;;4977839;28;20458;-62
2021/06/11 05:32:44;;;;;;;18.73;16.97;;;17.30;99.90;;;;;;4979538;28;20450;-63
2021/06/11 05:35:11;;;;;;;19.57;17.90;;;17.50;99.90;;;;;;4977375;28;20483;-62
2021/06/11 05:37:37;;;;;;;17.40;16.10;;;17.50;99.90;;;;;;4977449;28;20451;-63
2021/06/11 05:40:04;;;;;;;18.57;17.10;;;17.70;99.90;;;;;;4977021;28;20462;-64
2021/06/11 05:42:32;;;;;;;17.97;16.40;;;17.90;99.90;;;;;;4976542;28;20832;-64
2021/06/11 05:44:58;;;;;;;18.50;16.80;;;18.00;99.90;;;;;;4976481;28;20965;-64
2021/06/11 05:47:24;;;;;;;18.07;16.57;;;18.10;99.90;;;;;;4977122;28;20443;-62
2021/06/11 05:49:51;;;;;;;16.90;15.47;;;18.10;99.90;;;;;;4978318;28;20455;-61
2021/06/11 05:52:17;;;;;;;15.97;14.57;;;18.30;99.90;;;;;;4980165;28;20502;-65
2021/06/11 05:54:43;;;;;;;16.87;15.57;;;18.40;99.90;;;;;;4986457;28;20482;-63
2021/06/11 05:57:09;;;;;;;16.30;15.07;;;18.50;99.90;;;;;;4986050;28;20458;-62
2021/06/11 05:59:37;;;;;;;17.30;15.70;;;18.60;99.90;;;;;;4978693;28;20451;-62
2021/06/11 06:02:04;;;;;;;15.63;14.43;;;18.70;99.90;;;;;;4976022;28;20478;-62
2021/06/11 06:04:30;;;;;;;14.33;13.33;;;18.60;99.90;;;;;;4976173;28;20451;-62
2021/06/11 06:06:58;;;;;;;15.10;14.00;;;18.60;99.90;;;;;;4976327;28;20461;-62
2021/06/11 06:09:24;;;;;;;15.20;13.90;;;18.80;99.90;;;;;;4980875;28;20461;-63
2021/06/11 06:11:51;;;;;;;14.77;13.57;;;18.90;99.90;;;;;;4978703;28;20579;-63
2021/06/11 06:14:17;;;;;;;14.73;13.43;;;19.10;99.90;;;;;;4977246;28;20482;-62
2021/06/11 06:16:44;;;;;;;16.40;14.90;;;19.30;99.90;;;;;;4976287;28;20463;-63
2021/06/11 06:19:11;;;;;;;14.87;13.67;;;19.60;99.90;;;;;;4976346;28;20485;-63
2021/06/11 06:21:37;;;;;;;14.53;13.20;;;20.00;99.90;;;;;;4975215;28;20483;-64
2021/06/11 06:24:03;;;;;;;13.87;12.87;;;20.20;99.90;;;;;;4978996;28;20451;-64
2021/06/11 06:26:30;;;;;;;14.03;12.83;;;20.40;99.90;;;;;;4983971;28;20454;-63
2021/06/11 06:28:56;;;;;;;13.97;12.80;;;20.70;99.90;;;;;;4977362;28;20513;-62
2021/06/11 06:31:22;;;;;;;14.23;13.13;;;20.90;99.90;;;;;;4976479;28;20878;-62
2021/06/11 06:33:50;;;;;;;13.67;12.63;;;21.00;99.90;;;;;;4976388;28;20475;-63
2021/06/11 06:36:16;;;;;;;15.40;14.20;;;21.10;99.90;;;;;;4976109;28;20459;-64
2021/06/11 06:38:42;;;;;;;14.97;13.57;;;21.20;99.90;;;;;;4976199;28;20556;-63
2021/06/11 06:41:09;;;;;;;15.30;13.80;;;21.50;99.90;;;;;;4976201;28;20529;-63
2021/06/11 06:43:35;;;;;;;14.77;13.50;;;21.80;99.90;;;;;;4975896;28;20877;-62
2021/06/11 06:46:02;;;;;;;13.90;12.90;;;21.90;99.90;;;;;;4975771;28;20958;-62
2021/06/11 06:48:30;;;;;;;13.63;12.53;;;22.10;99.90;;;;;;4975694;28;20458;-62
2021/06/11 06:50:58;;;;;;;14.40;13.33;;;22.20;99.90;;;;;;4974989;28;20482;-62
2021/06/11 06:53:25;;;;;;;13.97;13.00;;;22.60;99.90;;;;;;4975206;28;20458;-63
2021/06/11 06:55:51;;;;;;;14.27;13.17;;;22.70;99.90;;;;;;4975139;28;20497;-63
2021/06/11 06:58:17;;;;;;;13.30;12.30;;;22.90;99.90;;;;;;4975362;28;20454;-63
2021/06/11 07:00:43;;;;;;;12.53;11.53;;;23.30;99.90;;;;;;4974988;28;20510;-63
2021/06/11 07:03:09;;;;;;;13.57;12.17;;;23.80;99.90;;;;;;4975319;28;20459;-63
2021/06/11 07:05:36;;;;;;;12.80;11.97;;;24.30;99.90;;;;;;4978653;28;20451;-62
2021/06/11 07:08:04;;;;;;;14.07;12.90;;;24.80;99.90;;;;;;4977176;28;20454;-62
2021/06/11 07:10:30;;;;;;;14.23;13.10;;;24.80;99.90;;;;;;4974933;28;20458;-62
2021/06/11 07:12:56;;;;;;;13.73;12.77;;;25.20;99.90;;;;;;4975059;28;20806;-64
2021/06/11 07:15:23;;;;;;;11.63;10.67;;;25.90;99.90;;;;;;4975058;28;20486;-63
2021/06/11 07:17:49;;;;;;;13.00;11.90;;;26.30;99.90;;;;;;4974954;28;20466;-62
2021/06/11 07:20:15;;;;;;;12.40;11.43;;;26.90;99.90;;;;;;4974891;28;20458;-63
2021/06/11 07:22:41;;;;;;;12.67;11.77;;;27.30;99.90;;;;;;4974635;28;20451;-63
2021/06/11 07:25:09;;;;;;;12.10;11.30;;;27.40;99.90;;;;;;4975018;28;20462;-63
2021/06/11 07:27:35;;;;;;;13.37;12.27;;;27.80;99.90;;;;;;4975294;28;20459;-63
2021/06/11 07:30:04;;;;;;;11.70;10.90;;;28.20;99.90;;;;;;4974942;28;20509;-62
2021/06/11 07:32:30;;;;;;;12.70;11.43;;;28.30;99.90;;;;;;4976196;28;20529;-62
2021/06/11 07:34:57;;;;;;;11.97;11.17;;;28.20;99.90;;;;;;4978568;28;20478;-62
2021/06/11 07:37:23;;;;;;;12.37;11.47;;;28.80;99.90;;;;;;4978603;28;20461;-63
2021/06/11 07:39:49;;;;;;;11.10;10.40;;;29.00;99.90;;;;;;4978680;28;20462;-63
2021/06/11 07:42:17;;;;;;;10.90;10.20;;;29.30;99.90;;;;;;4978309;28;20478;-63
2021/06/11 07:44:44;;;;;;;12.47;10.20;;;28.90;99.90;;;;;;4978818;28;20450;-64
2021/06/11 07:47:10;;;;;;;10.20;9.60;;;29.50;99.90;;;;;;4978136;28;20458;-63
2021/06/11 07:49:38;;;;;;;11.10;10.40;;;29.90;99.90;;;;;;4978389;28;20788;-62
2021/06/11 07:52:05;;;;;;;12.47;11.47;;;29.90;99.90;;;;;;4978347;28;20505;-63
2021/06/11 07:54:32;;;;;;;13.20;12.30;;;30.20;98.00;;;;;;4978143;28;20478;-62
2021/06/11 07:56:58;;;;;;;11.30;10.60;;;30.50;95.40;;;;;;4978189;28;20438;-63
2021/06/11 07:59:25;;;;;;;13.43;10.50;;;30.50;95.80;;;;;;4977754;28;20454;-62
2021/06/11 08:01:51;;;;;;;11.00;10.00;;;31.00;95.10;;;;;;4978095;28;20489;-62
2021/06/11 08:04:18;;;;;;;11.20;10.40;;;31.20;94.10;;;;;;4978149;28;20505;-64
2021/06/11 08:06:46;;;;;;;11.20;10.40;;;31.00;94.60;;;;;;4978518;28;20469;-64
2021/06/11 08:09:12;;;;;;;10.60;9.90;;;31.20;93.90;;;;;;4978050;28;20454;-64
2021/06/11 08:11:39;;;;;;;10.93;10.17;;;31.10;93.10;;;;;;4978158;28;20527;-63
2021/06/11 08:14:05;;;;;;;12.07;10.73;;;31.40;92.80;;;;;;4977750;28;20477;-64
2021/06/11 08:16:33;;;;;;;12.87;11.80;;;31.30;93.40;;;;;;4979429;28;20461;-65
2021/06/11 08:18:59;;;;;;;12.20;11.20;;;31.20;93.00;;;;;;4980753;28;20458;-64
2021/06/11 08:21:25;;;;;;;12.10;11.30;;;30.80;93.70;;;;;;4979523;28;20977;-64
2021/06/11 08:23:51;;;;;;;11.90;11.10;;;30.40;93.20;;;;;;4979345;28;20454;-64
2021/06/11 08:26:17;;;;;;;11.50;10.60;;;30.80;93.50;;;;;;4977895;28;20458;-63
2021/06/11 08:28:44;;;;;;;12.67;11.70;;;31.30;94.00;;;;;;4977359;28;20589;-64
2021/06/11 08:31:11;;;;;;;12.20;11.47;;;31.50;92.50;;;;;;4977322;28;20950;-64
2021/06/11 08:33:38;;;;;;;12.53;11.40;;;32.10;92.50;;;;;;4977159;28;20458;-64
2021/06/11 08:36:06;;;;;;;12.00;10.93;;;31.20;92.30;;;;;;4978013;28;20459;-65
2021/06/11 08:38:33;;;;;;;11.83;11.13;;;31.60;92.10;;;;;;4978496;28;20490;-64
2021/06/11 08:40:59;;;;;;;12.17;11.37;;;32.40;90.80;;;;;;4981073;28;20835;-63
2021/06/11 08:43:25;;;;;;;13.80;12.80;;;32.80;91.50;;;;;;4980782;28;20458;-65
2021/06/11 08:45:53;;;;;;;12.60;11.80;;;33.00;88.10;;;;;;4977389;28;20451;-64
2021/06/11 08:48:21;;;;;;;13.00;12.10;;;32.90;88.40;;;;;;4977415;28;20443;-66
2021/06/11 08:50:48;;;;;;;12.40;11.40;;;32.60;91.30;;;;;;4976811;28;20870;-64
2021/06/11 08:53:15;;;;;;;11.80;11.00;;;33.10;87.50;;;;;;4977220;28;20834;-65
2021/06/11 08:55:41;;;;;;;12.43;11.53;;;33.60;84.80;;;;;;4976876;28;20488;-64
2021/06/11 08:58:08;;;;;;;10.90;10.10;;;33.50;83.80;;;;;;4976970;28;20821;-65
2021/06/11 09:00:34;;;;;;;11.57;10.57;;;33.50;81.30;;;;;;4976627;28;20482;-64
2021/06/11 09:03:26;;;;;;;10.03;9.40;;;33.50;82.00;;;;;;4977069;28;20447;-65
2021/06/11 09:06:06;;;;;;;10.70;9.90;;;33.30;83.70;;;;;;4962991;28;20513;-65
2021/06/11 09:08:33;;;;;;;8.57;7.87;;;33.30;78.50;;;;;;4982356;28;20909;-64
2021/06/11 09:11:10;;;;;;;9.17;8.57;;;33.70;78.40;;;;;;4982400;28;20469;-63
2021/06/11 09:13:40;;;;;;;8.77;8.07;;;33.90;77.00;;;;;;4978366;28;20510;-64
2021/06/11 09:16:08;;;;;;;9.03;8.37;;;34.50;74.80;;;;;;4977300;28;20480;-63
2021/06/11 09:18:45;;;;;;;10.53;9.73;;;34.70;79.10;;;;;;4977152;28;20453;-63
2021/06/11 09:21:28;;;;;;;10.33;9.57;;;35.20;73.30;;;;;;4977759;28;20558;-63
2021/06/11 09:24:23;;;;;;;10.30;9.70;;;35.30;73.40;;;;;;4977313;28;20446;-65
2021/06/11 09:27:08;;;;;;;9.60;8.90;;;35.20;70.20;;;;;;4976999;28;20462;-63
2021/06/11 09:29:37;;;;;;;9.90;9.13;;;35.10;70.60;;;;;;4976934;28;20497;-64
2021/06/11 09:32:19;;;;;;;11.80;10.90;;;34.70;70.60;;;;;;4977014;28;20528;-65
2021/06/11 09:34:47;;;;;;;10.93;10.20;;;34.90;69.00;;;;;;4976912;28;20466;-63
2021/06/11 09:37:16;;;;;;;9.30;8.70;;;34.50;74.60;;;;;;4976645;28;20853;-64
2021/06/11 09:39:51;;;;;;;10.40;9.60;;;35.10;71.20;;;;;;4976399;28;20454;-63
2021/06/11 09:42:19;;;;;;;10.60;9.80;;;34.80;74.60;;;;;;4976265;28;20473;-63
2021/06/11 09:44:53;;;;;;;10.87;10.07;;;35.50;74.30;;;;;;4976299;28;20450;-63
2021/06/11 09:47:34;;;;;;;11.00;10.30;;;35.20;68.30;;;;;;4976132;28;20485;-64
2021/06/11 09:50:11;;;;;;;10.80;10.10;;;35.00;68.30;;;;;;4975980;28;20461;-64
2021/06/11 09:52:59;;;;;;;10.87;10.17;;;34.80;68.40;;;;;;4976000;28;21019;-65
2021/06/11 09:55:31;;;;;;;11.20;10.50;;;35.30;68.40;;;;;;4975922;28;20489;-63
2021/06/11 09:58:13;;;;;;;11.37;10.47;;;35.60;65.30;;;;;;4975956;28;20445;-64
2021/06/11 10:00:41;;;;;;;10.50;9.60;;;35.80;64.00;;;;;;4975406;28;21067;-64
2021/06/11 10:03:11;;;;;;;10.23;9.47;;;36.20;63.20;;;;;;4975952;28;20855;-64
2021/06/11 10:05:39;;;;;;;10.70;10.10;;;36.00;63.50;;;;;;4975880;28;20454;-64
2021/06/11 10:08:08;;;;;;;10.57;9.87;;;36.30;61.10;;;;;;4975625;28;20481;-64
2021/06/11 10:10:34;;;;;;;10.50;9.80;;;35.90;63.50;;;;;;4975594;28;20520;-63
2021/06/11 10:13:00;;;;;;;9.47;8.90;;;36.10;61.50;;;;;;4975753;28;20517;-64
2021/06/11 10:15:26;;;;;;;9.37;8.87;;;36.70;59.90;;;;;;4975910;28;20482;-64
2021/06/11 10:17:53;;;;;;;10.53;9.83;;;36.70;61.10;;;;;;4975959;28;20445;-64
2021/06/11 10:20:19;;;;;;;10.40;9.57;;;37.00;59.10;;;;;;4975493;28;20462;-64
2021/06/11 10:22:46;;;;;;;10.67;10.00;;;37.10;56.10;;;;;;4975534;28;20508;-63
2021/06/11 10:25:14;;;;;;;10.50;9.80;;;36.80;57.10;;;;;;4975468;28;20513;-64
2021/06/11 10:27:42;;;;;;;9.40;8.50;;;36.40;53.90;;;;;;4975506;28;20461;-63
2021/06/11 10:30:10;;;;;;;8.90;8.40;;;36.10;59.20;;;;;;4975309;28;20979;-64
2021/06/11 10:32:40;;;;;;;9.53;8.83;;;36.30;61.50;;;;;;4975158;28;20474;-63
2021/06/11 10:35:08;;;;;;;8.60;8.00;;;35.90;65.50;;;;;;4975306;28;20520;-64
2021/06/11 10:37:39;;;;;;;9.10;8.60;;;36.10;64.10;;;;;;4975760;28;20481;-64
2021/06/11 10:40:23;;;;;;;9.63;8.90;;;36.60;56.30;;;;;;4975350;28;20556;-64
2021/06/11 10:42:50;;;;;;;8.10;7.60;;;36.70;58.50;;;;;;4975286;28;20438;-64
2021/06/11 10:45:43;;;;;;;7.07;6.57;;;36.40;51.50;;;;;;4974889;28;20953;-64
2021/06/11 10:48:10;;;;;;;8.27;7.67;;;36.90;51.40;;;;;;4975309;28;20438;-64
2021/06/11 10:50:37;;;;;;;7.27;6.87;;;36.50;52.20;;;;;;4975615;28;20481;-64
2021/06/11 10:53:12;;;;;;;8.67;8.07;;;36.70;55.10;;;;;;4976131;28;20457;-64
2021/06/11 10:55:46;;;;;;;8.87;8.17;;;36.80;55.50;;;;;;4974833;28;20478;-64
2021/06/11 10:58:31;;;;;;;10.20;9.60;;;36.30;54.70;;;;;;4975214;28;20446;-64
2021/06/11 11:00:57;;;;;;;14.63;13.37;;;35.70;56.70;;;;;;4975127;28;20482;-64
2021/06/11 11:03:32;;;;;;;11.17;10.37;;;35.30;60.20;;;;;;4975206;28;20867;-64
2021/06/11 11:06:19;;;;;;;12.10;11.40;;;35.40;60.50;;;;;;4975672;28;20445;-64
2021/06/11 11:08:52;;;;;;;11.43;10.50;;;35.10;58.40;;;;;;4978235;28;20457;-64
2021/06/11 11:11:41;;;;;;;13.53;12.43;;;35.50;61.40;;;;;;4978675;28;20876;-63
2021/06/11 11:14:23;;;;;;;12.60;11.60;;;35.00;59.10;;;;;;4978796;28;20443;-64
2021/06/11 11:16:58;;;;;;;11.07;10.27;;;35.20;59.90;;;;;;4979064;28;20460;-65
2021/06/11 11:19:47;;;;;;;11.07;10.23;;;34.40;59.20;;;;;;4978859;28;20442;-65
2021/06/11 11:22:26;;;;;;;11.00;10.30;;;34.70;61.40;;;;;;4978777;28;20483;-64
2021/06/11 11:24:53;;;;;;;10.50;9.80;;;34.50;58.30;;;;;;4978579;28;20971;-64
2021/06/11 11:27:21;;;;;;;10.30;9.70;;;34.70;57.60;;;;;;4978798;28;20461;-64
2021/06/11 11:29:47;;;;;;;10.70;10.00;;;34.50;58.70;;;;;;4978824;28;20455;-64
2021/06/11 11:32:14;;;;;;;10.80;10.10;;;34.00;56.60;;;;;;4986177;28;20481;-64
2021/06/11 11:34:40;;;;;;;11.27;10.30;;;33.90;59.50;;;;;;4984852;28;20466;-64
2021/06/11 11:37:06;;;;;;;12.73;11.40;;;33.50;65.40;;;;;;4978888;28;20458;-64
2021/06/11 11:39:32;;;;;;;11.50;10.80;;;32.80;67.40;;;;;;4979211;28;20454;-64
2021/06/11 11:41:59;;;;;;;12.73;11.93;;;31.70;68.30;;;;;;4978698;28;20986;-64
2021/06/11 11:44:27;;;;;;;13.17;12.27;;;31.10;64.10;;;;;;4979128;28;20457;-64
2021/06/11 11:46:54;;;;;;;12.33;11.53;;;30.90;67.40;;;;;;4979259;28;20446;-65
2021/06/11 11:49:21;;;;;;;13.00;12.10;;;30.90;76.40;;;;;;4978782;28;20934;-64
2021/06/11 11:51:47;;;;;;;10.83;10.10;;;30.60;66.30;;;;;;4979119;28;20489;-64
2021/06/11 11:54:14;;;;;;;10.83;10.03;;;30.60;71.90;;;;;;4978883;28;20549;-65
2021/06/11 11:56:41;;;;;;;11.10;10.10;;;30.80;72.60;;;;;;4978635;28;20454;-64
2021/06/11 11:59:07;;;;;;;11.50;10.50;;;31.10;72.30;;;;;;4979077;28;20459;-65
2021/06/11 12:01:37;;;;;;;10.00;9.37;;;30.90;66.20;;;;;;4978532;28;20490;-64
2021/06/11 12:04:04;;;;;;;10.73;10.03;;;30.70;64.70;;;;;;4979735;28;20449;-64
2021/06/11 12:06:30;;;;;;;11.03;10.13;;;30.80;66.30;;;;;;4978985;28;20455;-63
2021/06/11 12:08:56;;;;;;;10.77;10.07;;;30.80;65.10;;;;;;4979078;28;20493;-64
2021/06/11 12:11:22;;;;;;;8.70;8.20;;;30.80;69.50;;;;;;4978580;28;21012;-63
2021/06/11 12:13:48;;;;;;;10.63;10.03;;;30.90;66.40;;;;;;4979209;28;20458;-64
2021/06/11 12:16:15;;;;;;;9.97;9.37;;;31.20;72.60;;;;;;4978895;28;20477;-64
2021/06/11 12:18:42;;;;;;;8.17;7.67;;;31.50;62.90;;;;;;4979362;28;20458;-65
2021/06/11 12:21:09;;;;;;;8.13;7.63;;;31.60;62.60;;;;;;4979130;28;20474;-63
2021/06/11 12:23:36;;;;;;;8.57;8.13;;;31.60;58.60;;;;;;4980178;28;20540;-64
2021/06/11 12:26:03;;;;;;;8.57;8.07;;;31.30;60.90;;;;;;4979030;28;20451;-64
2021/06/11 12:28:29;;;;;;;10.30;9.50;;;31.00;62.00;;;;;;4980840;28;20505;-64
2021/06/11 12:30:56;;;;;;;9.30;8.80;;;30.50;62.50;;;;;;4980306;28;20483;-64
2021/06/11 12:33:22;;;;;;;9.03;8.43;;;30.20;61.30;;;;;;4978455;28;20458;-63
2021/06/11 12:35:49;;;;;;;9.67;8.97;;;30.10;64.10;;;;;;4977641;28;20489;-64
2021/06/11 12:38:16;;;;;;;9.80;9.10;;;30.20;65.60;;;;;;4980249;28;20455;-64
2021/06/11 12:40:45;;;;;;;10.57;9.67;;;30.40;60.50;;;;;;4979454;28;20475;-64
2021/06/11 12:43:15;;;;;;;10.33;9.20;;;30.70;63.30;;;;;;4977493;28;20450;-64
2021/06/11 12:45:42;;;;;;;9.10;8.30;;;31.00;63.70;;;;;;4977743;28;20447;-64
2021/06/11 12:48:11;;;;;;;9.70;8.97;;;31.30;66.50;;;;;;4977108;28;21019;-64
2021/06/11 12:50:37;;;;;;;9.87;9.37;;;31.60;64.70;;;;;;4976997;28;20866;-64
2021/06/11 12:53:04;;;;;;;8.77;8.27;;;31.70;65.50;;;;;;4977456;28;20466;-64
2021/06/11 12:55:31;;;;;;;10.10;9.20;;;31.50;64.30;;;;;;4977269;28;20501;-63
2021/06/11 12:57:58;;;;;;;9.40;8.90;;;31.20;63.00;;;;;;4976731;28;20455;-64
2021/06/11 13:00:24;;;;;;;9.67;8.90;;;31.40;65.60;;;;;;4976829;28;20966;-64
2021/06/11 13:02:51;;;;;;;9.10;8.50;;;31.40;63.70;;;;;;4977434;28;20497;-62
2021/06/11 13:05:21;;;;;;;8.37;7.87;;;31.20;62.10;;;;;;4977137;28;20453;-61
2021/06/11 13:07:48;;;;;;;9.50;8.77;;;31.40;67.70;;;;;;4977043;28;20828;-61
2021/06/11 13:10:15;;;;;;;8.70;7.90;;;31.60;67.20;;;;;;4977296;28;20447;-61
2021/06/11 13:12:41;;;;;;;8.80;8.20;;;31.60;62.90;;;;;;4976984;28;20858;-62
2021/06/11 13:15:10;;;;;;;8.80;8.20;;;31.70;64.10;;;;;;4977125;28;20481;-61
2021/06/11 13:17:36;;;;;;;8.33;7.47;;;31.80;66.30;;;;;;4977263;28;20461;-61
2021/06/11 13:20:04;;;;;;;8.90;8.17;;;31.90;59.70;;;;;;4976898;28;20465;-62
2021/06/11 13:22:30;;;;;;;9.00;8.50;;;31.90;58.40;;;;;;4978006;28;20478;-62
2021/06/11 13:24:56;;;;;;;9.23;8.63;;;31.90;62.50;;;;;;4978220;28;20459;-61
2021/06/11 13:27:24;;;;;;;8.27;7.77;;;32.00;61.50;;;;;;4976912;28;20856;-62
2021/06/11 13:29:51;;;;;;;8.10;7.60;;;31.70;62.20;;;;;;4976241;28;20529;-62
2021/06/11 13:32:17;;;;;;;7.60;7.10;;;31.90;62.30;;;;;;4976458;28;20589;-62
2021/06/11 13:34:43;;;;;;;6.33;5.93;;;32.00;63.00;;;;;;4977039;28;20467;-62
2021/06/11 13:37:09;;;;;;;7.17;6.73;;;32.10;56.10;;;;;;4977373;28;20462;-62
2021/06/11 13:39:36;;;;;;;8.37;7.60;;;32.30;58.40;;;;;;4978175;28;20484;-63
2021/06/11 13:42:02;;;;;;;8.50;8.00;;;32.40;62.80;;;;;;4977867;28;20476;-63
2021/06/11 13:44:30;;;;;;;8.33;7.83;;;32.30;57.10;;;;;;4976436;28;20454;-62
2021/06/11 13:46:56;;;;;;;8.70;8.20;;;32.40;58.80;;;;;;4976459;28;20458;-61
2021/06/11 13:49:22;;;;;;;8.90;8.07;;;32.40;58.30;;;;;;4976926;28;20458;-61
2021/06/11 13:51:48;;;;;;;8.97;8.40;;;32.30;58.10;;;;;;4980259;28;20478;-62
2021/06/11 13:54:16;;;;;;;9.20;8.40;;;32.50;61.30;;;;;;4979675;28;20458;-62
2021/06/11 13:56:43;;;;;;;8.90;8.30;;;32.60;63.80;;;;;;4980154;28;20529;-62
2021/06/11 13:59:09;;;;;;;8.90;8.30;;;32.50;65.70;;;;;;4980700;28;20960;-62
2021/06/11 14:01:37;;;;;;;9.87;9.27;;;32.10;60.80;;;;;;4978493;28;20573;-63
2021/06/11 14:04:06;;;;;;;9.93;9.23;;;31.50;60.80;;;;;;4976031;28;20466;-63
2021/06/11 14:06:32;;;;;;;9.50;8.90;;;31.20;64.20;;;;;;4975901;28;20454;-62
2021/06/11 14:08:58;;;;;;;9.70;9.10;;;31.00;65.10;;;;;;4975952;28;20462;-63
2021/06/11 14:11:25;;;;;;;9.37;8.77;;;30.80;66.50;;;;;;4975835;28;20512;-62
2021/06/11 14:13:51;;;;;;;10.13;9.43;;;30.50;67.70;;;;;;4975667;28;20466;-63
2021/06/11 14:16:17;;;;;;;12.10;11.20;;;30.30;67.70;;;;;;4976298;28;20478;-63
2021/06/11 14:18:45;;;;;;;10.90;10.10;;;30.10;70.70;;;;;;4977956;28;20459;-62
2021/06/11 14:21:11;;;;;;;11.07;9.50;;;30.00;70.90;;;;;;4977488;28;20486;-63
2021/06/11 14:23:37;;;;;;;10.10;9.37;;;30.00;70.10;;;;;;4977232;28;20458;-63
2021/06/11 14:26:04;;;;;;;10.33;9.53;;;30.00;66.60;;;;;;4977221;28;20438;-64
2021/06/11 14:28:30;;;;;;;9.93;9.33;;;30.10;72.20;;;;;;4975528;28;20459;-63
2021/06/11 14:30:56;;;;;;;9.73;9.10;;;30.40;71.10;;;;;;4975425;28;20478;-62
2021/06/11 14:33:23;;;;;;;9.23;8.73;;;30.50;68.00;;;;;;4975315;28;20954;-62
2021/06/11 14:35:51;;;;;;;9.50;8.80;;;30.70;66.60;;;;;;4975414;28;20982;-62
2021/06/11 14:38:17;;;;;;;10.20;9.27;;;30.80;67.30;;;;;;4974950;28;20857;-62
2021/06/11 14:40:43;;;;;;;8.33;7.63;;;31.10;71.40;;;;;;4975350;28;20475;-64
2021/06/11 14:43:11;;;;;;;7.40;6.90;;;31.40;65.40;;;;;;4974559;28;20513;-64
2021/06/11 14:45:38;;;;;;;8.00;7.40;;;31.60;67.10;;;;;;4975073;28;20462;-63
2021/06/11 14:48:07;;;;;;;6.93;6.43;;;31.70;62.10;;;;;;4974739;28;20462;-63
2021/06/11 14:50:34;;;;;;;7.63;7.23;;;31.60;58.80;;;;;;4975732;28;20231;-62
2021/06/11 14:53:06;;;;;;;7.60;7.10;;;31.60;60.80;;;;;;4976518;28;20470;-63
2021/06/11 14:55:33;;;;;;;7.63;7.23;;;31.60;58.80;;;;;;4976462;28;20463;-62
2021/06/11 14:58:02;;;;;;;8.90;8.40;;;31.40;61.00;;;;;;4975866;28;20585;-64
2021/06/11 15:00:28;;;;;;;8.60;8.10;;;31.40;64.00;;;;;;4974996;28;20458;-63
2021/06/11 15:02:55;;;;;;;8.83;8.17;;;31.10;66.90;;;;;;4975278;28;20443;-63
2021/06/11 15:05:23;;;;;;;8.80;8.30;;;31.00;66.90;;;;;;4975022;28;20458;-62
2021/06/11 15:07:50;;;;;;;9.67;8.60;;;30.90;67.60;;;;;;4975006;28;20461;-62
2021/06/11 15:10:21;;;;;;;9.00;8.40;;;30.90;69.00;;;;;;4975180;28;20818;-63
2021/06/11 15:12:47;;;;;;;9.50;8.57;;;30.80;66.10;;;;;;4975789;28;20458;-62
2021/06/11 15:15:15;;;;;;;8.90;8.30;;;30.50;68.00;;;;;;4974729;28;20502;-65
2021/06/11 15:17:41;;;;;;;8.77;8.07;;;30.50;68.20;;;;;;4974966;28;20466;-64
2021/06/11 15:20:09;;;;;;;8.47;7.77;;;30.50;68.80;;;;;;4975122;28;20450;-66
2021/06/11 15:22:35;;;;;;;10.13;9.43;;;30.60;66.40;;;;;;4974813;28;20475;-65
2021/06/11 15:25:02;;;;;;;9.50;8.70;;;30.30;67.70;;;;;;4974885;28;20454;-64
2021/06/11 15:27:29;;;;;;;8.93;8.03;;;30.30;69.00;;;;;;4975582;28;20815;-65
2021/06/11 15:29:55;;;;;;;8.23;7.73;;;30.20;67.70;;;;;;4974857;28;20465;-63
2021/06/11 15:32:22;;;;;;;13.83;9.30;;;30.20;68.40;;;;;;4974467;28;20474;-62
2021/06/11 15:34:48;;;;;;;8.30;7.77;;;30.20;70.70;;;;;;4974577;28;20474;-61
2021/06/11 15:37:14;;;;;;;10.80;9.73;;;30.30;65.60;;;;;;4974811;28;20462;-64
2021/06/11 15:39:42;;;;;;;8.90;8.20;;;30.40;68.00;;;;;;4974763;28;20459;-63
2021/06/11 15:42:09;;;;;;;8.00;6.57;;;30.50;68.10;;;;;;4975058;28;20533;-63
2021/06/11 15:44:36;;;;;;;6.60;6.10;;;30.50;65.70;;;;;;4974764;28;20454;-61
2021/06/11 15:47:03;;;;;;;6.87;6.57;;;30.40;66.10;;;;;;4974892;28;20445;-62
2021/06/11 15:49:29;;;;;;;6.30;5.90;;;30.40;67.30;;;;;;4974602;28;20857;-62
2021/06/11 16:04:03;;;;;;;7.07;6.67;;;30.50;64.90;;;;;;5153313;27;20546;-62
2021/06/11 16:06:30;;;;;;;7.83;7.03;;;30.60;64.70;;;;;;5152989;27;20515;-61
2021/06/11 16:08:56;;;;;;;7.10;6.60;;;30.70;65.80;;;;;;5153046;27;20846;-61
2021/06/11 16:11:23;;;;;;;6.30;5.90;;;30.70;63.30;;;;;;5153087;27;20438;-61
2021/06/11 16:13:50;;;;;;;6.13;5.57;;;30.70;63.30;;;;;;5153397;27;20478;-61
2021/06/11 16:16:16;;;;;;;5.30;5.00;;;30.80;63.40;;;;;;5152783;27;20438;-61
2021/06/11 16:18:42;;;;;;;5.90;5.50;;;30.80;61.80;;;;;;5161906;27;20411;-61
2021/06/11 16:21:10;;;;;;;5.80;5.40;;;30.80;60.80;;;;;;5166958;27;20435;-61
2021/06/11 16:23:36;;;;;;;5.00;4.70;;;30.60;61.30;;;;;;5157223;27;20466;-61
2021/06/11 16:26:02;;;;;;;5.63;5.10;;;30.20;60.10;;;;;;5156958;27;20501;-62
2021/06/11 16:28:28;;;;;;;5.93;5.63;;;30.20;60.10;;;;;;5158821;27;20460;-61
2021/06/11 16:30:54;;;;;;;4.87;4.67;;;30.20;59.10;;;;;;5155897;27;20803;-62
2021/06/11 16:33:21;;;;;;;12.73;11.90;;;30.30;60.00;;;;;;5162085;27;20481;-63
2021/06/11 16:35:47;;;;;;;5.53;5.13;;;30.40;60.10;;;;;;5159758;27;20431;-62
2021/06/11 16:38:16;;;;;;;4.90;4.60;;;30.40;58.50;;;;;;5153391;27;20451;-62
2021/06/11 16:40:44;;;;;;;4.43;4.20;;;30.10;59.90;;;;;;5152306;27;20458;-62
2021/06/11 16:43:12;;;;;;;5.03;4.63;;;30.10;59.10;;;;;;5152117;27;20806;-62
2021/06/11 16:45:39;;;;;;;5.30;5.10;;;30.10;59.50;;;;;;5152187;27;20495;-62
2021/06/11 16:48:06;;;;;;;5.47;5.10;;;30.00;59.30;;;;;;5152028;27;20521;-63
2021/06/11 16:50:33;;;;;;;5.17;4.87;;;29.80;58.90;;;;;;5152075;27;20538;-62
2021/06/11 16:52:59;;;;;;;4.90;4.70;;;29.70;59.60;;;;;;5151877;27;20474;-62